Fresno Yosemite International Airport

Airport
ICAO code: 
KFAT
Summary
ICAO Region: 
NAM
Territory: 
Location: 
Fresno, California,
Elevation: 
336 ft
Coordinates: 
Aerial View: 
36° 46' 34.084" N, 119° 43' 4.451" W
Airport LOS: 
Parallel Runway Operation
Metar
Observation
KFAT 090353Z 28004KT 5SM HZ FEW039 BKN055 BKN200 12/08 A2998 RMK AO2 SLP153 T01170083
Station
Fresno, Fresno Air Terminal
Date/Time
2021-12-09 03:53:00
Wind direction
280°
Wind speed
04 kts
Lowest cloud amount
few clouds
Temperature
11.7°C
Dew point
8.3°C
Humidity
79%
Weather condition
haze

Description

Fresno Yosemite International Airport, formerly known as Fresno Air Terminal, is a joint civil-military (ANG) airport located in eastern Fresno, in Fresno County, California

Climatology

Fresno is marked by a semi-arid climate (Köppen climate classification BSh), with mild, moderately wet winters and hot and dry summers, thus displaying some Mediterranean (Köppen climate classification CSa) characteristics.

Runways

Designator Length Width Surface Rops
11R/29L 2196 30 ASP Yes/Yes
11L/29R 2809 46 ASP Yes/Yes
Airport map: 
Aerial View: 

SKYbrary Partners:

Safety knowledge contributed by: